Time;durP1;ratioP1;P1;durP2;ratioP2;P2;SDS_P1;SDS_P2;PMS_P1;PMS_P2;Temp;Humidity;BMP_temperature;BMP_pressure;BME280_temperature;BME280_humidity;BME280_pressure;Samples;Min_cycle;Max_cycle;Signal;HPM_P1;HPM_P2
2022/02/15 00:01:57;;;;;;;6.37;4.53;;;9.20;99.90;;;;;;5017853;28;20891;-59
2022/02/15 00:04:24;;;;;;;13.37;5.30;;;9.20;99.90;;;;;;5017823;28;20493;-59
2022/02/15 00:06:50;;;;;;;12.40;5.10;;;9.10;99.90;;;;;;5017699;28;20489;-58
2022/02/15 00:09:17;;;;;;;5.87;4.27;;;9.10;99.90;;;;;;5017884;28;20516;-59
2022/02/15 00:11:44;;;;;;;7.47;5.00;;;9.10;99.90;;;;;;5017565;28;20888;-58
2022/02/15 00:14:12;;;;;;;6.93;3.93;;;9.20;99.90;;;;;;5017685;28;20470;-59
2022/02/15 00:16:38;;;;;;;8.30;5.30;;;9.10;99.90;;;;;;5017828;28;20449;-59
2022/02/15 00:19:06;;;;;;;10.23;5.40;;;9.10;99.90;;;;;;5018173;28;20946;-58
2022/02/15 00:21:32;;;;;;;11.27;5.00;;;9.10;99.90;;;;;;5017249;28;20475;-59
2022/02/15 00:23:59;;;;;;;7.33;4.27;;;9.10;99.90;;;;;;5017504;28;20567;-59
2022/02/15 00:26:26;;;;;;;7.03;4.47;;;9.10;99.90;;;;;;5017256;28;20457;-59
2022/02/15 00:28:53;;;;;;;9.43;4.83;;;9.10;99.90;;;;;;5017367;28;20464;-56
2022/02/15 00:31:21;;;;;;;5.73;3.87;;;9.10;99.90;;;;;;5017121;28;21045;-57
2022/02/15 00:33:48;;;;;;;8.50;4.40;;;9.10;99.90;;;;;;5017516;28;20458;-61
2022/02/15 00:36:16;;;;;;;6.70;4.10;;;9.10;99.90;;;;;;5018295;28;20508;-59
2022/02/15 00:38:42;;;;;;;6.23;3.40;;;9.00;99.90;;;;;;5017785;28;20445;-59
2022/02/15 00:41:09;;;;;;;6.20;4.23;;;9.00;99.90;;;;;;5017266;28;20449;-59
2022/02/15 00:43:36;;;;;;;9.73;4.90;;;9.10;99.90;;;;;;5017067;28;20481;-59
2022/02/15 00:46:02;;;;;;;9.00;4.30;;;9.00;99.90;;;;;;5017112;28;20822;-56
2022/02/15 00:48:31;;;;;;;8.27;4.77;;;9.00;99.90;;;;;;5017038;28;20461;-60
2022/02/15 00:50:57;;;;;;;7.07;4.00;;;9.00;99.90;;;;;;5016007;28;20520;-59
2022/02/15 00:53:24;;;;;;;9.70;4.80;;;9.00;99.90;;;;;;5016769;28;20434;-58
2022/02/15 00:55:51;;;;;;;6.87;3.93;;;9.00;99.90;;;;;;5016674;28;20461;-62
2022/02/15 00:58:18;;;;;;;9.87;4.70;;;9.00;99.90;;;;;;5017707;28;20446;-61
2022/02/15 01:00:44;;;;;;;6.97;5.10;;;9.00;99.90;;;;;;5016771;28;20445;-60
2022/02/15 01:03:11;;;;;;;4.77;4.30;;;9.00;99.90;;;;;;5016907;28;20505;-63
2022/02/15 01:05:39;;;;;;;6.60;4.40;;;9.00;99.90;;;;;;5016841;28;21022;-59
2022/02/15 01:08:06;;;;;;;6.63;4.93;;;8.90;99.90;;;;;;5016488;28;20861;-55
2022/02/15 01:10:32;;;;;;;9.20;4.40;;;8.90;99.90;;;;;;5016653;28;20449;-57
2022/02/15 01:12:59;;;;;;;7.10;4.50;;;8.90;99.90;;;;;;5016620;28;20512;-57
2022/02/15 01:15:26;;;;;;;9.10;5.07;;;8.90;99.90;;;;;;5016746;28;20434;-61
2022/02/15 01:17:53;;;;;;;6.30;4.40;;;8.90;99.90;;;;;;5016660;28;20445;-57
2022/02/15 01:20:19;;;;;;;5.90;4.20;;;8.90;99.90;;;;;;5016825;28;20480;-61
2022/02/15 01:22:47;;;;;;;8.20;5.80;;;8.90;99.90;;;;;;5016408;28;20523;-58
2022/02/15 01:25:14;;;;;;;6.27;3.53;;;8.90;99.90;;;;;;5016227;28;20477;-58
2022/02/15 01:27:41;;;;;;;5.03;4.10;;;8.90;99.90;;;;;;5016425;28;20453;-57
2022/02/15 01:30:10;;;;;;;11.13;6.23;;;9.00;99.90;;;;;;5016481;28;20450;-60
2022/02/15 01:32:36;;;;;;;7.27;4.80;;;8.90;99.90;;;;;;5016118;28;20484;-54
2022/02/15 01:35:04;;;;;;;6.37;3.87;;;8.90;99.90;;;;;;5016268;28;20762;-59
2022/02/15 01:37:30;;;;;;;8.03;4.73;;;8.90;99.90;;;;;;5016357;28;20465;-58
2022/02/15 01:39:58;;;;;;;6.53;4.40;;;8.90;99.90;;;;;;5016648;28;20450;-57
2022/02/15 01:42:25;;;;;;;8.80;4.80;;;8.90;99.90;;;;;;5016103;28;20508;-59
2022/02/15 01:44:51;;;;;;;9.47;5.00;;;8.90;99.90;;;;;;5015817;28;20485;-60
2022/02/15 01:47:23;;;;;;;11.23;5.07;;;8.80;99.90;;;;;;5016067;28;20526;-58
2022/02/15 01:49:50;;;;;;;6.83;4.17;;;8.80;99.90;;;;;;5015861;28;20531;-59
2022/02/15 01:52:18;;;;;;;6.87;3.93;;;8.80;99.90;;;;;;5015984;28;20456;-60
2022/02/15 01:54:44;;;;;;;5.80;4.40;;;8.80;99.90;;;;;;5015704;28;20446;-60
2022/02/15 01:57:13;;;;;;;5.20;3.83;;;8.80;99.90;;;;;;5015751;28;20489;-60
2022/02/15 01:59:40;;;;;;;5.20;4.20;;;8.80;99.90;;;;;;5016289;28;20476;-61
2022/02/15 02:02:07;;;;;;;6.57;3.70;;;8.80;99.90;;;;;;5015811;28;20481;-60
2022/02/15 02:07:19;;;;;;;5.97;4.83;;;8.70;99.90;;;;;;5015558;28;20413;-60
2022/02/15 02:09:45;;;;;;;7.27;4.70;;;8.70;99.90;;;;;;5015569;28;20592;-60
2022/02/15 02:12:14;;;;;;;9.17;3.47;;;8.70;99.90;;;;;;5015692;28;20445;-60
2022/02/15 02:14:40;;;;;;;5.60;3.73;;;8.70;99.90;;;;;;5015550;28;20473;-60
2022/02/15 02:17:07;;;;;;;5.17;3.70;;;8.80;99.90;;;;;;5015527;28;20449;-60
2022/02/15 02:19:34;;;;;;;5.80;3.93;;;8.70;99.90;;;;;;5015675;28;20938;-58
2022/02/15 02:22:02;;;;;;;4.50;3.10;;;8.70;99.90;;;;;;5016318;28;20429;-60
2022/02/15 02:24:28;;;;;;;8.77;4.00;;;8.70;99.90;;;;;;5015317;28;20512;-60
2022/02/15 02:26:55;;;;;;;9.67;4.57;;;8.60;99.90;;;;;;5015275;28;20473;-60
2022/02/15 02:29:22;;;;;;;5.83;3.80;;;8.60;99.90;;;;;;5015331;28;20453;-60
2022/02/15 02:31:48;;;;;;;7.23;3.80;;;8.60;99.90;;;;;;5015369;28;20460;-62
2022/02/15 02:34:15;;;;;;;15.33;3.97;;;8.50;99.90;;;;;;5015378;28;20441;-57
2022/02/15 02:36:42;;;;;;;4.70;3.40;;;8.50;99.90;;;;;;5015358;28;20515;-60
2022/02/15 02:39:10;;;;;;;6.30;3.77;;;8.50;99.90;;;;;;5015569;28;20491;-59
2022/02/15 02:41:37;;;;;;;8.33;4.07;;;8.50;99.90;;;;;;5015357;28;20446;-60
2022/02/15 02:44:04;;;;;;;12.07;4.90;;;8.50;99.90;;;;;;5014796;28;20926;-58
2022/02/15 02:46:31;;;;;;;6.23;5.00;;;8.40;99.90;;;;;;5015105;28;20519;-59
2022/02/15 02:48:57;;;;;;;5.70;3.67;;;8.40;99.90;;;;;;5015104;28;20472;-55
2022/02/15 02:51:24;;;;;;;7.50;5.17;;;8.40;99.90;;;;;;5014971;28;20473;-60
2022/02/15 02:53:51;;;;;;;10.37;3.90;;;8.30;99.90;;;;;;5015017;28;20453;-59
2022/02/15 02:56:19;;;;;;;9.47;3.80;;;8.30;99.90;;;;;;5016186;28;20441;-57
2022/02/15 02:58:45;;;;;;;9.53;3.23;;;8.30;99.90;;;;;;5015355;28;20445;-63
2022/02/15 03:01:12;;;;;;;5.00;2.93;;;8.20;99.90;;;;;;5015220;28;20453;-61
2022/02/15 03:03:39;;;;;;;5.13;3.47;;;8.20;99.90;;;;;;5015487;28;20467;-60
2022/02/15 03:06:06;;;;;;;4.10;3.10;;;8.10;99.90;;;;;;5014902;28;20539;-61
2022/02/15 03:08:33;;;;;;;4.57;2.63;;;8.10;99.90;;;;;;5014730;28;20448;-60
2022/02/15 03:11:00;;;;;;;5.93;3.77;;;8.00;99.90;;;;;;5014964;28;20441;-58
2022/02/15 03:13:28;;;;;;;11.47;4.20;;;8.00;99.90;;;;;;5016491;28;20465;-60
2022/02/15 03:15:54;;;;;;;5.60;3.57;;;8.00;99.90;;;;;;5018701;28;20469;-59
2022/02/15 03:18:21;;;;;;;5.47;3.30;;;8.00;99.90;;;;;;5019132;28;20449;-60
2022/02/15 03:20:48;;;;;;;9.93;4.30;;;8.00;99.90;;;;;;5018630;28;20459;-58
2022/02/15 03:23:14;;;;;;;5.17;3.20;;;8.00;99.90;;;;;;5018757;28;20434;-57
2022/02/15 03:25:41;;;;;;;5.33;2.80;;;7.90;99.90;;;;;;5018626;28;20482;-59
2022/02/15 03:28:08;;;;;;;4.47;3.10;;;7.90;99.90;;;;;;5018643;28;20472;-59
2022/02/15 03:30:36;;;;;;;5.93;4.17;;;7.90;99.90;;;;;;5018304;28;20480;-59
2022/02/15 03:33:02;;;;;;;5.53;3.30;;;7.90;99.90;;;;;;5018446;28;20481;-59
2022/02/15 03:35:29;;;;;;;6.73;3.10;;;7.90;99.90;;;;;;5018557;28;20419;-59
2022/02/15 03:37:56;;;;;;;8.70;3.53;;;7.80;99.90;;;;;;5018761;28;20510;-59
2022/02/15 03:40:22;;;;;;;4.17;3.77;;;7.80;99.90;;;;;;5018595;28;20605;-57
2022/02/15 03:43:06;;;;;;;5.20;2.77;;;7.80;99.90;;;;;;5018394;28;20587;-56
2022/02/15 03:45:33;;;;;;;6.00;3.40;;;7.80;99.90;;;;;;5018401;28;20506;-59
2022/02/15 03:48:01;;;;;;;8.30;3.30;;;7.80;99.90;;;;;;5017946;28;20475;-59
2022/02/15 03:50:31;;;;;;;7.37;3.63;;;7.80;99.90;;;;;;5018225;28;20881;-58
2022/02/15 03:52:57;;;;;;;8.60;4.00;;;7.80;99.90;;;;;;5018233;28;20447;-59
2022/02/15 03:55:24;;;;;;;4.00;3.50;;;7.80;99.90;;;;;;5018032;28;20469;-57
2022/02/15 03:57:51;;;;;;;5.77;4.13;;;7.70;99.90;;;;;;5001680;28;20461;-63
2022/02/15 04:00:18;;;;;;;4.90;3.43;;;7.70;99.90;;;;;;5018640;28;20499;-59
2022/02/15 04:02:44;;;;;;;6.10;3.47;;;7.70;99.90;;;;;;5017713;28;20451;-59
2022/02/15 04:05:12;;;;;;;5.50;4.07;;;7.60;99.90;;;;;;5017808;28;20511;-58
2022/02/15 04:07:39;;;;;;;5.13;3.40;;;7.60;99.90;;;;;;5017730;28;20473;-58
2022/02/15 04:10:06;;;;;;;5.77;3.67;;;7.60;99.90;;;;;;5017842;28;21015;-56
2022/02/15 04:12:33;;;;;;;5.80;3.83;;;7.60;99.90;;;;;;5017814;28;20468;-60
2022/02/15 04:15:00;;;;;;;5.67;4.10;;;7.50;99.90;;;;;;5017770;28;20480;-57
2022/02/15 04:17:26;;;;;;;4.10;3.00;;;7.40;99.90;;;;;;5017795;28;20963;-58
2022/02/15 04:19:53;;;;;;;5.33;3.57;;;7.50;99.90;;;;;;5017859;28;20522;-59
2022/02/15 04:22:21;;;;;;;9.57;3.47;;;7.40;99.90;;;;;;5017709;28;20466;-60
2022/02/15 04:24:48;;;;;;;4.07;3.57;;;7.40;99.90;;;;;;5017630;28;20481;-59
2022/02/15 04:27:15;;;;;;;4.83;3.20;;;7.40;99.90;;;;;;5017711;28;20455;-60
2022/02/15 04:29:42;;;;;;;6.77;3.67;;;7.40;99.90;;;;;;5017526;28;20492;-61
2022/02/15 04:32:10;;;;;;;7.53;3.33;;;7.40;99.90;;;;;;5017415;28;20508;-58
2022/02/15 04:34:39;;;;;;;9.23;4.23;;;7.40;99.90;;;;;;5017312;28;20486;-56
2022/02/15 04:37:05;;;;;;;5.83;3.70;;;7.40;99.90;;;;;;5017639;28;20464;-61
2022/02/15 04:39:33;;;;;;;4.13;3.40;;;7.40;99.90;;;;;;5018014;28;20464;-53
2022/02/15 04:42:00;;;;;;;4.87;3.20;;;7.40;99.90;;;;;;5017314;28;20460;-59
2022/02/15 04:44:27;;;;;;;4.90;2.97;;;7.40;99.90;;;;;;5016852;28;20448;-56
2022/02/15 04:46:53;;;;;;;4.87;3.90;;;7.40;99.90;;;;;;5017132;28;20519;-58
2022/02/15 04:49:20;;;;;;;5.97;3.43;;;7.40;99.90;;;;;;5017162;28;20511;-55
2022/02/15 04:51:47;;;;;;;8.87;3.53;;;7.50;99.90;;;;;;5017067;28;20514;-57
2022/02/15 04:54:14;;;;;;;4.20;3.13;;;7.50;99.90;;;;;;5017090;28;20819;-59
2022/02/15 04:56:42;;;;;;;5.23;4.00;;;7.40;99.90;;;;;;5017119;28;20457;-56
2022/02/15 04:59:09;;;;;;;3.77;3.33;;;7.40;99.90;;;;;;5017524;28;20558;-59
2022/02/15 05:01:36;;;;;;;7.43;3.30;;;7.40;99.90;;;;;;5016786;28;20453;-58
2022/02/15 05:04:02;;;;;;;7.63;4.03;;;7.50;99.90;;;;;;5017222;28;20797;-62
2022/02/15 05:06:29;;;;;;;5.33;4.50;;;7.50;99.90;;;;;;5017458;28;20480;-60
2022/02/15 05:08:56;;;;;;;8.80;3.33;;;7.40;99.90;;;;;;5017942;28;20452;-61
2022/02/15 05:11:22;;;;;;;5.50;3.40;;;7.50;99.90;;;;;;5022246;28;20472;-59
2022/02/15 05:13:53;;;;;;;4.40;3.43;;;7.50;99.90;;;;;;5022367;28;20503;-60
2022/02/15 05:16:19;;;;;;;7.00;4.50;;;7.50;99.90;;;;;;5021922;28;20515;-59
2022/02/15 05:18:46;;;;;;;4.63;3.73;;;7.50;99.90;;;;;;5021510;28;20438;-55
2022/02/15 05:21:13;;;;;;;3.37;3.03;;;7.40;99.90;;;;;;5020367;28;20483;-56
2022/02/15 05:23:40;;;;;;;6.53;3.90;;;7.40;99.90;;;;;;5019805;28;20475;-54
2022/02/15 05:26:06;;;;;;;4.43;3.13;;;7.40;99.90;;;;;;5019827;28;20487;-59
2022/02/15 05:28:33;;;;;;;5.33;3.77;;;7.30;99.90;;;;;;5019381;28;20457;-59
2022/02/15 05:31:02;;;;;;;9.67;4.10;;;7.30;99.90;;;;;;5019652;28;20435;-59
2022/02/15 05:33:29;;;;;;;6.20;4.00;;;7.30;99.90;;;;;;5019840;28;20452;-56
2022/02/15 05:35:55;;;;;;;7.57;3.90;;;7.30;99.90;;;;;;5019149;28;20453;-53
2022/02/15 05:38:22;;;;;;;7.00;4.33;;;7.30;99.90;;;;;;5019684;28;20807;-55
2022/02/15 05:40:50;;;;;;;7.60;4.17;;;7.30;99.90;;;;;;5019662;28;20456;-59
2022/02/15 05:43:17;;;;;;;10.17;4.47;;;7.20;99.90;;;;;;5019708;28;20465;-59
2022/02/15 05:45:44;;;;;;;6.70;4.07;;;7.20;99.90;;;;;;5020918;28;20483;-62
2022/02/15 05:48:12;;;;;;;3.70;3.33;;;7.20;99.90;;;;;;5021448;28;20475;-58
2022/02/15 05:50:51;;;;;;;8.40;5.50;;;7.20;99.90;;;;;;5021021;28;20831;-55
2022/02/15 05:53:18;;;;;;;8.33;4.30;;;7.20;99.90;;;;;;5019928;28;20476;-59
2022/02/15 05:55:44;;;;;;;7.63;4.50;;;7.20;99.90;;;;;;5019691;28;20428;-58
2022/02/15 05:58:11;;;;;;;5.90;3.80;;;7.20;99.90;;;;;;5019706;28;20453;-56
2022/02/15 06:00:38;;;;;;;6.63;4.10;;;7.20;99.90;;;;;;5019515;28;20510;-58
2022/02/15 06:04:09;;;;;;;4.70;3.30;;;7.30;99.90;;;;;;5019556;28;20979;-58
2022/02/15 06:05:52;;;;;;;5.83;3.57;;;7.20;99.90;;;;;;5018927;28;20487;-60
2022/02/15 06:08:19;;;;;;;5.83;3.57;;;7.20;99.90;;;;;;5019377;28;20449;-59
2022/02/15 06:10:47;;;;;;;10.33;5.00;;;7.20;99.90;;;;;;5019870;28;20518;-54
2022/02/15 06:13:13;;;;;;;5.80;3.60;;;7.20;99.90;;;;;;5019657;28;20559;-53
2022/02/15 06:15:40;;;;;;;9.67;3.47;;;7.10;99.90;;;;;;5019526;28;20445;-58
2022/02/15 06:18:07;;;;;;;5.07;3.20;;;7.10;99.90;;;;;;5019020;28;20468;-57
2022/02/15 06:20:34;;;;;;;5.47;3.17;;;7.20;99.90;;;;;;5019121;28;20467;-59
2022/02/15 06:23:02;;;;;;;3.90;3.50;;;7.10;99.90;;;;;;5018846;28;20472;-59
2022/02/15 06:25:29;;;;;;;4.47;3.80;;;7.10;99.90;;;;;;5018536;28;20524;-59
2022/02/15 06:27:56;;;;;;;6.30;3.23;;;7.10;99.90;;;;;;5018210;28;20453;-57
2022/02/15 06:30:23;;;;;;;5.30;3.50;;;7.10;99.90;;;;;;5018609;28;20473;-58
2022/02/15 06:32:50;;;;;;;13.23;3.87;;;7.10;99.90;;;;;;5018991;28;20489;-55
2022/02/15 06:35:17;;;;;;;8.80;3.90;;;7.10;99.90;;;;;;5018955;28;20531;-56
2022/02/15 06:37:45;;;;;;;4.50;3.30;;;7.10;99.90;;;;;;5018897;28;20458;-58
2022/02/15 06:40:14;;;;;;;5.70;4.17;;;7.10;99.90;;;;;;5018736;28;20457;-59
2022/02/15 06:42:42;;;;;;;7.07;3.53;;;7.10;99.90;;;;;;5018857;28;20460;-59
2022/02/15 06:45:09;;;;;;;5.20;3.37;;;7.00;99.90;;;;;;5019008;28;20749;-58
2022/02/15 06:47:37;;;;;;;6.63;3.13;;;7.00;99.90;;;;;;5017675;28;20782;-54
2022/02/15 06:50:05;;;;;;;8.03;4.67;;;7.10;99.90;;;;;;5019164;28;20453;-58
2022/02/15 06:52:33;;;;;;;7.10;3.93;;;7.10;99.90;;;;;;5019132;28;20461;-60
2022/02/15 06:55:09;;;;;;;5.20;3.17;;;7.10;99.90;;;;;;5019653;28;20823;-60
2022/02/15 06:57:39;;;;;;;8.30;4.23;;;6.70;99.90;;;;;;5020705;28;20434;-56
2022/02/15 07:00:07;;;;;;;8.00;4.00;;;7.10;99.90;;;;;;5021002;28;20473;-59
2022/02/15 07:02:34;;;;;;;6.57;3.70;;;7.10;99.90;;;;;;5018955;28;20440;-60
2022/02/15 07:05:01;;;;;;;7.90;4.03;;;7.20;99.90;;;;;;5018995;28;20454;-59
2022/02/15 07:07:27;;;;;;;5.40;3.50;;;7.20;99.90;;;;;;5018429;28;20553;-55
2022/02/15 07:09:54;;;;;;;6.47;4.70;;;7.20;99.90;;;;;;5019464;28;20483;-60
2022/02/15 07:12:22;;;;;;;4.67;3.33;;;7.20;99.90;;;;;;5018859;28;20484;-56
2022/02/15 07:14:52;;;;;;;8.13;3.60;;;7.30;99.90;;;;;;5018845;28;20883;-54
2022/02/15 07:17:19;;;;;;;4.40;3.47;;;7.30;99.90;;;;;;5019692;28;20462;-58
2022/02/15 07:19:46;;;;;;;9.97;4.10;;;7.30;99.90;;;;;;5018097;28;20481;-55
2022/02/15 07:22:13;;;;;;;4.40;2.67;;;7.40;99.90;;;;;;5018849;28;20432;-60
2022/02/15 07:24:41;;;;;;;6.93;4.33;;;7.40;99.90;;;;;;5018077;28;20479;-59
2022/02/15 07:27:08;;;;;;;6.90;4.17;;;7.40;99.90;;;;;;5018045;28;20473;-60
2022/02/15 07:29:35;;;;;;;5.73;3.17;;;7.40;99.90;;;;;;5018144;28;20478;-59
2022/02/15 07:32:03;;;;;;;13.53;4.53;;;7.40;99.90;;;;;;5018244;28;20480;-57
2022/02/15 07:34:30;;;;;;;5.80;4.10;;;7.40;99.90;;;;;;5018025;28;20461;-56
2022/02/15 07:36:57;;;;;;;9.37;5.53;;;7.50;99.90;;;;;;5018138;28;20469;-55
2022/02/15 07:39:23;;;;;;;6.03;4.23;;;7.50;99.90;;;;;;5021288;28;20461;-54
2022/02/15 07:41:50;;;;;;;8.83;4.00;;;7.60;99.90;;;;;;5014516;28;20453;-52
2022/02/15 07:44:17;;;;;;;7.90;3.40;;;7.60;99.90;;;;;;5014446;28;20435;-55
2022/02/15 07:46:47;;;;;;;10.93;5.03;;;7.60;99.90;;;;;;5015559;28;20470;-53
2022/02/15 07:49:15;;;;;;;7.53;3.87;;;7.70;99.90;;;;;;5015592;28;20468;-54
2022/02/15 07:51:42;;;;;;;10.77;4.30;;;7.70;99.90;;;;;;5015462;28;20438;-45
2022/02/15 07:54:09;;;;;;;10.63;4.30;;;7.80;99.90;;;;;;5016191;28;20503;-50
2022/02/15 07:56:36;;;;;;;6.37;4.00;;;7.80;99.90;;;;;;5015854;28;20416;-56
2022/02/15 07:59:05;;;;;;;7.43;5.23;;;7.80;99.90;;;;;;5016730;28;20465;-58
2022/02/15 08:01:32;;;;;;;7.80;4.10;;;7.80;99.90;;;;;;5019707;28;20460;-47
2022/02/15 08:04:00;;;;;;;6.30;4.60;;;7.80;99.90;;;;;;5019527;28;20502;-51
2022/02/15 08:06:29;;;;;;;6.70;4.17;;;7.80;99.90;;;;;;5018910;28;20498;-58
2022/02/15 08:08:56;;;;;;;8.90;3.30;;;8.20;99.90;;;;;;5018974;28;20466;-49
2022/02/15 08:11:24;;;;;;;5.20;3.60;;;8.40;99.90;;;;;;5019087;28;20460;-51
2022/02/15 08:13:51;;;;;;;10.43;3.53;;;8.20;99.90;;;;;;5019156;28;20511;-56
2022/02/15 08:16:23;;;;;;;5.50;3.00;;;8.10;99.90;;;;;;5019359;28;20496;-53
2022/02/15 08:18:50;;;;;;;5.90;3.70;;;8.00;99.90;;;;;;5019082;28;20480;-57
2022/02/15 08:21:17;;;;;;;25.47;3.60;;;8.00;99.90;;;;;;5018174;28;20448;-52
2022/02/15 08:23:46;;;;;;;20.23;3.70;;;8.00;99.90;;;;;;5018337;28;20443;-51
2022/02/15 08:26:12;;;;;;;10.00;3.60;;;8.00;99.90;;;;;;5018467;28;20465;-52
2022/02/15 08:28:43;;;;;;;4.10;3.10;;;8.00;99.90;;;;;;5018786;28;20883;-55
2022/02/15 08:31:10;;;;;;;5.90;4.07;;;8.10;99.90;;;;;;5018152;28;21000;-52
2022/02/15 08:33:37;;;;;;;7.90;3.70;;;8.10;99.90;;;;;;5018952;28;20446;-57
2022/02/15 08:36:04;;;;;;;5.67;3.00;;;8.10;99.90;;;;;;5018914;28;20469;-50
2022/02/15 08:38:33;;;;;;;4.70;3.50;;;8.20;99.90;;;;;;5018258;28;20610;-45
2022/02/15 08:41:01;;;;;;;6.03;3.70;;;8.20;99.90;;;;;;5018582;28;20451;-54
2022/02/15 08:43:28;;;;;;;3.80;2.90;;;8.30;99.90;;;;;;5019284;28;20442;-55
2022/02/15 08:45:55;;;;;;;3.50;2.90;;;8.40;99.90;;;;;;5018579;28;20442;-51
2022/02/15 08:48:21;;;;;;;4.33;2.20;;;8.40;99.90;;;;;;5018461;28;20473;-49
2022/02/15 08:50:48;;;;;;;4.20;2.80;;;8.40;99.90;;;;;;5018865;28;20514;-56
2022/02/15 08:53:15;;;;;;;4.10;2.30;;;8.50;99.90;;;;;;5018518;28;20470;-49
2022/02/15 08:55:42;;;;;;;6.70;2.90;;;8.50;99.90;;;;;;5018086;28;20443;-57
2022/02/15 08:58:10;;;;;;;4.87;3.30;;;8.60;99.90;;;;;;5017549;28;20471;-53
2022/02/15 09:00:38;;;;;;;7.33;3.30;;;8.80;99.90;;;;;;5017485;28;20445;-51
2022/02/15 09:03:05;;;;;;;6.93;2.77;;;8.90;99.90;;;;;;5017697;28;20485;-52
2022/02/15 09:05:32;;;;;;;6.63;2.47;;;9.10;99.90;;;;;;5017278;28;20466;-53
2022/02/15 09:07:59;;;;;;;11.20;2.30;;;9.20;99.90;;;;;;5016521;28;20481;-50
2022/02/15 09:10:26;;;;;;;3.33;2.37;;;9.40;99.90;;;;;;5015854;28;20469;-58
2022/02/15 09:12:53;;;;;;;8.20;3.60;;;9.50;99.90;;;;;;5016715;28;20446;-55
2022/02/15 09:15:21;;;;;;;3.23;2.10;;;9.60;99.90;;;;;;5016449;28;20477;-50
2022/02/15 09:17:48;;;;;;;3.10;2.33;;;9.60;99.90;;;;;;5016669;28;20426;-57
2022/02/15 09:20:15;;;;;;;6.80;2.47;;;9.60;99.90;;;;;;5016581;28;20481;-49
2022/02/15 09:22:43;;;;;;;5.83;4.53;;;9.70;99.90;;;;;;5017109;28;20470;-55
2022/02/15 09:25:10;;;;;;;5.07;3.07;;;9.60;99.90;;;;;;5016574;28;20457;-56
2022/02/15 09:27:40;;;;;;;2.90;2.10;;;9.60;99.90;;;;;;5016477;28;20495;-57
2022/02/15 09:30:10;;;;;;;6.27;3.30;;;9.70;99.90;;;;;;5016479;28;20483;-59
2022/02/15 09:32:39;;;;;;;7.87;3.00;;;9.70;99.90;;;;;;5011843;28;20535;-58
2022/02/15 09:35:07;;;;;;;4.83;2.60;;;9.70;99.90;;;;;;5008005;28;20463;-50
2022/02/15 09:37:34;;;;;;;7.80;3.03;;;9.80;99.90;;;;;;5007526;28;20489;-53
2022/02/15 09:40:01;;;;;;;4.50;3.10;;;9.90;99.90;;;;;;5008966;28;20508;-57
2022/02/15 09:42:29;;;;;;;9.87;3.43;;;9.90;99.90;;;;;;5009680;28;20455;-58
2022/02/15 09:44:56;;;;;;;4.10;2.97;;;10.10;99.90;;;;;;5015713;28;20783;-57
2022/02/15 09:47:25;;;;;;;4.60;2.97;;;10.30;99.90;;;;;;5015481;28;20539;-57
2022/02/15 09:57:39;;;;;;;7.20;3.60;;;12.80;99.90;;;;;;5281139;23;20876;-62
2022/02/15 10:00:07;;;;;;;4.40;2.17;;;13.70;99.90;;;;;;5002667;28;20468;-62
2022/02/15 10:02:36;;;;;;;4.13;2.23;;;14.00;99.90;;;;;;4989144;28;20474;-55
2022/02/15 10:05:04;;;;;;;5.17;2.80;;;13.90;99.90;;;;;;4994997;28;20491;-59
2022/02/15 10:07:31;;;;;;;3.60;3.30;;;14.30;99.90;;;;;;4993826;28;20553;-60
2022/02/15 10:09:59;;;;;;;6.73;3.70;;;14.50;99.90;;;;;;4998223;28;20452;-60
2022/02/15 10:12:28;;;;;;;3.50;2.77;;;14.50;99.90;;;;;;4998229;28;20467;-50
2022/02/15 10:14:57;;;;;;;6.00;3.80;;;13.70;99.90;;;;;;4999696;28;20448;-55
2022/02/15 10:17:24;;;;;;;4.23;3.03;;;13.00;99.90;;;;;;4999551;28;20468;-51
2022/02/15 10:19:52;;;;;;;6.50;3.93;;;12.20;99.90;;;;;;4999692;28;20412;-53
2022/02/15 10:22:21;;;;;;;7.33;3.47;;;11.40;99.90;;;;;;4995766;28;20460;-59
2022/02/15 10:24:51;;;;;;;10.43;3.70;;;11.00;99.90;;;;;;4995767;28;20479;-59
2022/02/15 10:27:19;;;;;;;5.37;3.63;;;10.70;99.90;;;;;;4995225;28;20505;-59
2022/02/15 10:29:47;;;;;;;5.67;3.23;;;10.40;99.90;;;;;;4995142;28;20548;-59
2022/02/15 10:32:20;;;;;;;11.53;4.03;;;10.30;99.90;;;;;;4995426;28;20456;-58
2022/02/15 10:34:48;;;;;;;6.33;4.23;;;10.30;99.90;;;;;;4995849;28;20491;-61
2022/02/15 10:37:15;;;;;;;4.90;3.00;;;10.20;99.90;;;;;;4981231;28;20479;-59
2022/02/15 10:39:43;;;;;;;6.37;4.07;;;10.10;99.90;;;;;;4976179;28;20788;-59
2022/02/15 10:42:12;;;;;;;5.33;3.70;;;10.00;99.90;;;;;;4976641;28;20856;-63
2022/02/15 10:44:50;;;;;;;6.03;3.50;;;9.90;99.90;;;;;;4976218;28;20752;-60
2022/02/15 10:47:19;;;;;;;5.27;3.60;;;9.90;99.90;;;;;;4977879;28;20502;-60
2022/02/15 10:49:46;;;;;;;6.47;4.07;;;10.00;99.90;;;;;;4976342;28;20454;-57
2022/02/15 10:52:13;;;;;;;6.00;2.30;;;10.10;99.90;;;;;;4975905;28;20447;-60
2022/02/15 10:54:40;;;;;;;7.90;3.00;;;10.20;99.90;;;;;;4975738;28;20436;-60
2022/02/15 10:57:11;;;;;;;9.20;2.90;;;10.20;99.90;;;;;;4975807;28;20455;-54
2022/02/15 10:59:41;;;;;;;6.53;4.00;;;10.10;99.90;;;;;;4975827;28;20475;-59
2022/02/15 11:02:11;;;;;;;4.73;3.00;;;10.20;99.90;;;;;;4979157;28;20525;-61
2022/02/15 11:04:41;;;;;;;5.53;2.67;;;10.20;99.90;;;;;;4975825;28;20477;-59
2022/02/15 11:07:11;;;;;;;8.50;3.17;;;10.30;99.90;;;;;;4975352;28;20483;-60
2022/02/15 11:09:44;;;;;;;7.00;3.57;;;10.40;99.90;;;;;;4975534;28;20462;-57
2022/02/15 11:12:21;;;;;;;4.10;2.70;;;10.30;99.90;;;;;;4975902;28;20510;-59
2022/02/15 11:14:52;;;;;;;4.40;3.33;;;10.20;99.90;;;;;;4975408;28;20447;-60
2022/02/15 11:17:19;;;;;;;6.83;3.17;;;10.30;99.90;;;;;;4975635;28;20490;-63
2022/02/15 11:19:58;;;;;;;4.70;2.90;;;10.30;99.90;;;;;;4975766;28;20458;-59
2022/02/15 11:22:25;;;;;;;3.73;3.10;;;10.40;99.90;;;;;;4982432;28;20451;-60
2022/02/15 11:24:54;;;;;;;4.40;2.50;;;10.30;99.90;;;;;;4998627;28;20458;-53
2022/02/15 11:27:22;;;;;;;9.40;3.00;;;10.30;99.90;;;;;;4998903;28;20452;-56
2022/02/15 11:29:51;;;;;;;5.97;2.90;;;10.40;99.90;;;;;;4998561;28;20435;-54
2022/02/15 11:32:43;;;;;;;5.60;2.90;;;10.60;99.90;;;;;;4998722;28;20439;-56
2022/02/15 13:13:37;;;;;;;4.57;2.40;;;11.60;99.90;;;;;;5022611;23;20505;-54
2022/02/15 13:16:06;;;;;;;3.00;2.57;;;12.10;99.90;;;;;;4998812;28;20920;-62
2022/02/15 13:18:42;;;;;;;2.23;2.03;;;12.40;99.90;;;;;;4997516;28;20494;-61
2022/02/15 13:21:13;;;;;;;3.10;2.00;;;12.60;99.90;;;;;;4997051;28;20434;-60
2022/02/15 13:23:40;;;;;;;6.70;2.40;;;12.70;99.90;;;;;;4996922;28;20474;-63
2022/02/15 13:26:11;;;;;;;6.10;3.30;;;12.80;99.90;;;;;;4996402;28;20461;-62
2022/02/15 13:28:54;;;;;;;7.17;1.87;;;12.70;99.90;;;;;;4996320;28;20506;-64
2022/02/15 13:31:24;;;;;;;2.73;2.30;;;12.70;99.90;;;;;;4995395;28;20456;-62
2022/02/15 13:33:52;;;;;;;2.60;2.37;;;12.40;99.90;;;;;;4996536;28;20506;-61
2022/02/15 13:36:31;;;;;;;2.60;2.20;;;12.20;99.90;;;;;;4996650;28;20463;-60
2022/02/15 13:38:59;;;;;;;2.90;2.37;;;12.30;99.90;;;;;;4996553;28;20548;-61
2022/02/15 13:41:26;;;;;;;3.23;2.43;;;11.90;99.90;;;;;;4995712;28;20459;-62
2022/02/15 13:44:02;;;;;;;4.50;1.80;;;11.60;99.90;;;;;;4995925;28;20481;-60
2022/02/15 13:46:30;;;;;;;3.13;2.47;;;11.40;99.90;;;;;;4996206;28;20430;-64
2022/02/15 13:49:02;;;;;;;5.10;3.00;;;11.60;99.90;;;;;;4996185;28;20582;-61
2022/02/15 13:51:30;;;;;;;2.43;1.83;;;11.70;99.90;;;;;;5004769;28;20455;-56
2022/02/15 13:53:59;;;;;;;3.47;2.90;;;11.90;99.90;;;;;;5015048;28;20459;-64
2022/02/15 13:56:26;;;;;;;3.90;2.57;;;12.20;99.90;;;;;;5015485;28;20438;-62
2022/02/15 13:58:54;;;;;;;5.70;3.60;;;12.10;99.90;;;;;;5015923;28;20482;-63
2022/02/15 14:01:23;;;;;;;4.40;3.10;;;12.10;99.90;;;;;;5006537;28;20458;-61
2022/02/15 14:03:50;;;;;;;9.50;3.53;;;12.00;99.90;;;;;;4998062;28;20454;-62
2022/02/15 14:06:19;;;;;;;6.63;3.23;;;11.70;99.90;;;;;;4997623;28;20537;-62
2022/02/15 14:08:47;;;;;;;2.90;2.13;;;11.60;99.90;;;;;;4997252;28;20490;-61
2022/02/15 14:11:14;;;;;;;3.87;2.57;;;11.50;99.90;;;;;;4997171;28;20466;-59
2022/02/15 14:13:41;;;;;;;4.10;3.07;;;11.30;99.90;;;;;;4996483;28;20613;-61
2022/02/15 14:16:09;;;;;;;5.50;2.80;;;11.10;99.90;;;;;;4997303;28;20474;-63
2022/02/15 14:18:37;;;;;;;8.10;3.43;;;10.90;99.90;;;;;;4997666;28;20529;-63
2022/02/15 14:21:04;;;;;;;5.40;2.70;;;10.90;99.90;;;;;;4998137;28;20477;-62
2022/02/15 14:23:31;;;;;;;4.60;3.00;;;10.80;99.90;;;;;;4998437;28;20446;-62
2022/02/15 14:25:58;;;;;;;5.53;3.30;;;10.80;99.90;;;;;;4997512;28;20466;-62
2022/02/15 14:28:25;;;;;;;5.20;3.10;;;10.70;99.90;;;;;;4996506;28;20482;-63
2022/02/15 14:30:52;;;;;;;6.90;3.83;;;10.70;99.90;;;;;;4995736;28;20557;-62
2022/02/15 14:33:19;;;;;;;5.00;3.03;;;10.60;99.90;;;;;;4995886;28;20454;-63
2022/02/15 14:35:48;;;;;;;4.40;3.43;;;10.60;99.90;;;;;;4995419;28;20966;-62
2022/02/15 14:38:17;;;;;;;9.47;3.80;;;10.50;99.90;;;;;;4995829;28;20458;-67
2022/02/15 14:40:45;;;;;;;5.00;3.20;;;10.40;99.90;;;;;;4995531;28;20466;-64
2022/02/15 14:43:12;;;;;;;4.80;3.33;;;10.40;99.90;;;;;;4995082;28;20430;-61
2022/02/15 14:45:40;;;;;;;4.77;4.13;;;10.50;99.90;;;;;;4994779;28;20450;-61